Brighton, Oregon
Current Conditions -  °F | °C
As of 8:15 AM on Tuesday 21 Oct 2014 (Local Time) from KTMK Reporting Station
Heavy Rain Heavy Rain  
Wind Chill: 55°   Ceiling: 2500
Heat Index: 55°   Visibility: 7mi
Dew Point: 54°   Wind: 0mph
Humidity: 94%   Direction: NA
Pressure: 29.94"   Gusts: NA
Location:  45.6132°N, 123.654°W
Report Text: KTMK 211515Z AUTO 00000KT 7SM +RA SCT020 BKN025 OVC038 13/12 A2994 RMK AO2 P0002
Loading
Personal Weather Stations






























Interactive Weather Map
Tropical Storm Tracking
New forecast layout! Learn more

10-Day Weather Forecast

Advertisements
Track Severe Weather on mobile